Time;durP1;ratioP1;P1;durP2;ratioP2;P2;SDS_P1;SDS_P2;PMS_P1;PMS_P2;Temp;Humidity;BMP_temperature;BMP_pressure;BME280_temperature;BME280_humidity;BME280_pressure;Samples;Min_cycle;Max_cycle;Signal;HPM_P1;HPM_P2
2023/07/04 00:01:07;;;;;;;11.55;9.80;;;21.60;99.90;;;;;;4871538;29;20076;-89
2023/07/04 00:03:34;;;;;;;9.85;8.93;;;21.60;99.90;;;;;;4871088;29;20033;-89
2023/07/04 00:06:01;;;;;;;16.70;9.82;;;21.70;99.90;;;;;;4871080;29;20549;-88
2023/07/04 00:08:29;;;;;;;10.23;9.05;;;21.70;99.90;;;;;;4870895;29;20631;-89
2023/07/04 00:10:58;;;;;;;15.95;9.60;;;21.70;99.90;;;;;;4871093;29;20037;-88
2023/07/04 00:13:27;;;;;;;10.77;9.20;;;21.70;99.90;;;;;;4874150;29;20040;-89
2023/07/04 00:15:55;;;;;;;10.73;8.23;;;21.70;99.90;;;;;;4871210;29;20386;-89
2023/07/04 00:18:23;;;;;;;10.80;9.70;;;21.70;99.90;;;;;;4870757;29;20033;-89
2023/07/04 00:20:55;;;;;;;11.20;9.20;;;21.70;99.90;;;;;;4870296;29;20459;-90
2023/07/04 00:23:29;;;;;;;10.15;8.63;;;21.80;99.90;;;;;;4870341;29;20113;-89
2023/07/04 00:25:56;;;;;;;13.20;9.10;;;21.80;99.90;;;;;;4870385;29;20107;-89
2023/07/04 00:28:24;;;;;;;14.55;9.57;;;21.90;99.90;;;;;;4870308;29;20398;-90
2023/07/04 00:30:52;;;;;;;20.25;11.82;;;21.90;99.90;;;;;;4870254;29;20527;-90
2023/07/04 00:33:20;;;;;;;16.35;10.90;;;21.90;99.90;;;;;;4870393;29;20497;-90
2023/07/04 00:35:47;;;;;;;22.27;11.80;;;21.80;99.90;;;;;;4870534;29;20111;-90
2023/07/04 00:38:14;;;;;;;15.60;10.57;;;21.80;99.90;;;;;;4869995;29;20077;-93
2023/07/04 00:40:40;;;;;;;14.70;10.48;;;21.70;99.90;;;;;;4870004;29;20079;-93
2023/07/04 00:43:10;;;;;;;12.35;9.68;;;21.60;99.90;;;;;;4870190;29;20479;-92
2023/07/04 00:45:44;;;;;;;11.00;8.98;;;21.60;99.90;;;;;;4869965;29;20037;-93
2023/07/04 00:48:12;;;;;;;;;;;21.70;99.90;;;;;;4871404;29;20028;-91
2023/07/04 00:50:46;;;;;;;12.95;9.30;;;21.70;99.90;;;;;;4869725;29;19915;-91
2023/07/04 00:53:15;;;;;;;11.48;9.23;;;21.60;99.90;;;;;;4870040;29;20043;-92
2023/07/04 00:55:47;;;;;;;14.68;8.85;;;21.60;99.90;;;;;;4869844;29;20036;-91
2023/07/04 00:58:15;;;;;;;11.30;9.00;;;21.60;99.90;;;;;;4869792;29;20036;-91
2023/07/04 01:00:44;;;;;;;10.43;8.50;;;21.70;99.90;;;;;;4869479;29;20032;-91
2023/07/04 01:03:14;;;;;;;14.13;8.10;;;21.80;99.90;;;;;;4869571;29;20037;-91
2023/07/04 01:05:54;;;;;;;12.75;8.40;;;21.70;99.90;;;;;;4869504;29;20048;-92
2023/07/04 01:08:27;;;;;;;9.93;8.00;;;21.80;99.90;;;;;;4868963;29;20478;-90
2023/07/04 01:10:55;;;;;;;9.90;7.30;;;21.80;99.90;;;;;;4869751;29;20052;-93
2023/07/04 01:13:43;;;;;;;12.13;7.03;;;21.90;99.90;;;;;;4870263;29;20119;-92
2023/07/04 01:16:14;;;;;;;6.90;6.22;;;22.00;99.90;;;;;;4872189;29;20029;-92
2023/07/04 01:18:54;;;;;;;9.88;7.40;;;22.00;99.90;;;;;;4878300;29;20033;-92
2023/07/04 01:21:25;;;;;;;11.38;6.38;;;22.00;99.90;;;;;;4873559;29;20475;-91
2023/07/04 01:24:13;;;;;;;8.77;7.07;;;22.00;99.90;;;;;;4869641;29;20055;-93
2023/07/04 01:26:46;;;;;;;10.82;7.85;;;22.00;99.90;;;;;;4869550;29;20036;-91
2023/07/04 01:29:15;;;;;;;7.70;6.50;;;22.00;99.90;;;;;;4869694;29;20056;-91
2023/07/04 01:31:43;;;;;;;9.02;8.05;;;21.90;99.90;;;;;;4870382;29;20044;-92
2023/07/04 01:34:12;;;;;;;11.52;8.02;;;21.80;99.90;;;;;;4871464;29;20037;-90
2023/07/04 01:36:42;;;;;;;10.25;7.55;;;21.80;99.90;;;;;;4872408;29;20033;-93
2023/07/04 01:39:14;;;;;;;10.20;8.20;;;21.70;99.90;;;;;;4871773;29;20553;-92
2023/07/04 01:41:44;;;;;;;8.23;7.43;;;21.70;99.90;;;;;;4886415;29;20500;-92
2023/07/04 01:44:12;;;;;;;8.38;7.22;;;21.60;99.90;;;;;;4902763;29;20032;-93
2023/07/04 01:46:38;;;;;;;12.48;7.82;;;21.50;99.90;;;;;;4901905;29;20036;-92
2023/07/04 01:49:05;;;;;;;12.57;7.95;;;21.50;99.90;;;;;;4914412;29;20099;-91
2023/07/04 01:51:41;;;;;;;8.77;7.25;;;21.50;99.90;;;;;;4916189;29;20028;-91
2023/07/04 01:54:08;;;;;;;;;;;21.40;99.90;;;;;;4897952;29;20450;-92
2023/07/04 01:56:38;;;;;;;7.30;6.57;;;21.30;99.90;;;;;;4897840;29;19966;-91
2023/07/04 01:59:07;;;;;;;10.05;7.90;;;21.30;99.90;;;;;;4900147;29;20065;-93
2023/07/04 02:01:38;;;;;;;10.27;8.07;;;21.30;99.90;;;;;;4899730;29;20096;-91
2023/07/04 02:04:04;;;;;;;8.55;7.00;;;21.20;99.90;;;;;;4905324;29;20277;-93
2023/07/04 02:06:31;;;;;;;9.35;7.35;;;21.10;99.90;;;;;;4900109;29;20033;-90
2023/07/04 02:08:58;;;;;;;7.95;7.13;;;21.10;99.90;;;;;;4900062;29;20047;-91
2023/07/04 02:11:24;;;;;;;10.43;7.47;;;21.00;99.90;;;;;;4868830;29;20123;-91
2023/07/04 02:13:51;;;;;;;10.32;8.02;;;21.00;99.90;;;;;;4868755;29;20115;-90
2023/07/04 02:16:18;;;;;;;8.85;7.40;;;21.00;99.90;;;;;;4899689;29;20035;-93
2023/07/04 02:18:45;;;;;;;8.23;7.03;;;21.00;99.90;;;;;;4869179;29;20039;-91
2023/07/04 02:21:11;;;;;;;10.90;7.88;;;20.90;99.90;;;;;;4867565;29;20036;-91
2023/07/04 02:23:38;;;;;;;9.05;7.82;;;20.90;99.90;;;;;;4883768;29;20033;-90
2023/07/04 02:26:04;;;;;;;9.32;7.20;;;20.90;99.90;;;;;;4868418;29;20036;-91
2023/07/04 02:28:30;;;;;;;13.25;7.80;;;20.80;99.90;;;;;;4883945;29;20530;-93
2023/07/04 02:30:59;;;;;;;9.05;6.85;;;20.90;99.90;;;;;;4868354;29;20028;-92
2023/07/04 02:33:27;;;;;;;9.68;7.50;;;20.90;99.90;;;;;;4899733;29;20383;-94
2023/07/04 02:35:54;;;;;;;9.05;7.50;;;20.90;99.90;;;;;;4899532;29;20591;-91
2023/07/04 02:38:25;;;;;;;10.18;6.97;;;20.90;99.90;;;;;;4899315;29;20084;-91
2023/07/04 02:40:51;;;;;;;11.27;7.07;;;20.90;99.90;;;;;;4883428;29;20032;-91
2023/07/04 02:43:19;;;;;;;10.48;7.18;;;20.90;99.90;;;;;;4873916;29;20039;-91
2023/07/04 02:45:47;;;;;;;7.18;6.20;;;20.90;99.90;;;;;;4907073;29;20035;-91
2023/07/04 02:48:15;;;;;;;10.57;7.15;;;21.00;99.90;;;;;;4870421;29;20451;-92
2023/07/04 02:50:43;;;;;;;9.32;6.80;;;21.00;99.90;;;;;;4868336;29;20081;-90
2023/07/04 02:53:10;;;;;;;13.07;7.75;;;21.00;99.90;;;;;;4868267;29;20055;-91
2023/07/04 02:55:37;;;;;;;13.93;7.03;;;21.00;99.90;;;;;;4900025;29;20028;-93
2023/07/04 02:58:05;;;;;;;11.73;6.70;;;21.00;99.90;;;;;;4868623;29;20406;-92
2023/07/04 03:00:35;;;;;;;8.32;6.78;;;21.10;99.90;;;;;;4873203;29;20009;-94
2023/07/04 03:03:02;;;;;;;12.68;6.90;;;21.10;99.90;;;;;;4892195;29;20079;-92
2023/07/04 03:05:30;;;;;;;9.25;5.95;;;21.20;99.90;;;;;;4914054;29;20043;-92
2023/07/04 03:07:57;;;;;;;13.80;6.85;;;21.30;99.90;;;;;;4876139;29;20115;-92
2023/07/04 03:10:23;;;;;;;11.52;6.28;;;21.50;99.90;;;;;;4883331;29;20028;-91
2023/07/04 03:12:51;;;;;;;9.68;6.18;;;21.50;99.90;;;;;;4867890;29;20032;-93
2023/07/04 03:15:18;;;;;;;10.95;6.00;;;21.40;99.90;;;;;;4898965;29;20039;-91
2023/07/04 03:17:49;;;;;;;9.50;6.32;;;21.50;99.90;;;;;;4868452;29;20097;-92
2023/07/04 03:20:16;;;;;;;10.80;6.18;;;21.40;99.90;;;;;;4867702;29;20111;-92
2023/07/04 03:22:45;;;;;;;12.68;6.35;;;21.40;99.90;;;;;;4898926;29;20518;-91
2023/07/04 03:25:14;;;;;;;12.77;7.85;;;21.30;99.90;;;;;;4902991;29;20060;-93
2023/07/04 03:27:41;;;;;;;9.75;6.70;;;21.30;99.90;;;;;;4908481;29;20581;-93
2023/07/04 03:30:12;;;;;;;7.05;6.22;;;21.30;99.90;;;;;;4903299;29;20033;-92
2023/07/04 03:32:41;;;;;;;9.60;6.28;;;21.30;99.90;;;;;;4898366;29;20029;-93
2023/07/04 03:35:09;;;;;;;11.20;6.93;;;21.30;99.90;;;;;;4883243;29;20045;-91
2023/07/04 03:37:39;;;;;;;13.55;8.15;;;21.30;99.90;;;;;;4867259;29;20155;-91
2023/07/04 03:40:09;;;;;;;12.15;6.93;;;21.20;99.90;;;;;;4867571;29;20041;-91
2023/07/04 03:42:39;;;;;;;10.88;6.40;;;21.20;99.90;;;;;;4867927;29;20562;-93
2023/07/04 03:45:07;;;;;;;8.65;7.00;;;21.30;99.90;;;;;;4865709;29;20033;-92
2023/07/04 03:47:34;;;;;;;11.48;8.13;;;21.10;99.90;;;;;;4867512;29;20443;-91
2023/07/04 03:50:04;;;;;;;10.95;7.82;;;21.00;99.90;;;;;;4867761;29;20084;-92
2023/07/04 03:52:30;;;;;;;10.77;7.72;;;20.90;99.90;;;;;;4867675;29;20040;-90
2023/07/04 03:54:58;;;;;;;11.30;7.57;;;20.90;99.90;;;;;;4843485;29;20543;-93
2023/07/04 03:57:24;;;;;;;11.98;7.78;;;20.80;99.90;;;;;;4829417;29;20116;-91
2023/07/04 03:59:51;;;;;;;11.48;8.07;;;20.80;99.90;;;;;;4829983;29;20076;-92
2023/07/04 04:02:18;;;;;;;11.38;7.85;;;20.80;99.90;;;;;;4829660;29;20065;-91
2023/07/04 04:04:44;;;;;;;13.10;7.80;;;20.90;99.90;;;;;;4830007;29;20045;-91
2023/07/04 04:07:12;;;;;;;11.80;8.25;;;20.90;99.90;;;;;;4829632;29;20030;-92
2023/07/04 04:09:39;;;;;;;9.80;7.35;;;21.00;99.90;;;;;;4829790;29;20048;-91
2023/07/04 04:12:07;;;;;;;14.43;8.40;;;21.10;99.90;;;;;;4830046;29;20116;-90
2023/07/04 04:14:36;;;;;;;12.77;8.70;;;21.30;99.90;;;;;;4836554;29;20045;-91
2023/07/04 04:17:04;;;;;;;11.10;7.80;;;21.50;99.90;;;;;;4838970;29;20072;-93
2023/07/04 04:19:31;;;;;;;12.77;7.72;;;21.60;99.90;;;;;;4830984;29;20026;-91
2023/07/04 04:21:58;;;;;;;9.95;7.68;;;21.60;99.90;;;;;;4830265;29;20151;-93
2023/07/04 04:24:25;;;;;;;11.00;7.78;;;21.70;99.90;;;;;;4825832;29;20030;-93
2023/07/04 04:26:51;;;;;;;10.73;6.95;;;21.80;99.90;;;;;;4863659;29;20040;-92
2023/07/04 04:29:22;;;;;;;11.05;8.52;;;21.90;99.90;;;;;;4882940;29;20102;-92
2023/07/04 04:31:49;;;;;;;12.93;8.07;;;22.10;99.90;;;;;;4867577;29;20525;-92
2023/07/04 04:34:21;;;;;;;11.65;8.57;;;22.30;99.90;;;;;;4870501;29;20055;-92
2023/07/04 04:36:48;;;;;;;11.50;8.65;;;22.40;99.90;;;;;;4902330;29;20040;-93
2023/07/04 04:39:15;;;;;;;10.60;9.32;;;22.60;99.90;;;;;;4886863;29;20080;-92
2023/07/04 04:41:42;;;;;;;10.85;9.75;;;22.80;99.90;;;;;;4890237;29;20048;-92
2023/07/04 04:44:09;;;;;;;13.23;10.10;;;23.10;99.90;;;;;;4893798;29;20052;-92
2023/07/04 04:46:36;;;;;;;11.88;10.65;;;23.50;99.90;;;;;;4911937;29;20087;-93
2023/07/04 04:49:03;;;;;;;12.48;11.35;;;24.00;99.90;;;;;;4905262;29;20031;-92
2023/07/04 04:51:31;;;;;;;16.75;13.73;;;24.90;99.90;;;;;;4904571;29;20036;-92
2023/07/04 04:53:57;;;;;;;17.20;15.55;;;26.10;99.90;;;;;;4905085;29;20055;-92
2023/07/04 04:56:33;;;;;;;15.52;14.02;;;27.50;99.90;;;;;;4894735;29;20049;-93
2023/07/04 04:59:01;;;;;;;18.67;16.85;;;28.70;99.90;;;;;;4907094;29;20039;-92
2023/07/04 05:01:28;;;;;;;21.38;19.38;;;30.20;99.90;;;;;;4855285;29;20408;-91
2023/07/04 05:03:55;;;;;;;21.75;20.13;;;31.00;99.90;;;;;;4853499;29;20448;-90
2023/07/04 05:06:25;;;;;;;21.50;20.10;;;31.30;99.90;;;;;;4867374;29;20033;-92
2023/07/04 05:08:52;;;;;;;22.42;20.73;;;31.50;99.90;;;;;;4852114;29;20033;-90
2023/07/04 05:11:20;;;;;;;22.70;21.10;;;31.90;99.90;;;;;;4867190;29;20045;-90
2023/07/04 05:13:47;;;;;;;23.20;21.52;;;32.50;99.90;;;;;;4852255;29;20037;-90
2023/07/04 05:16:19;;;;;;;23.30;21.30;;;33.20;99.90;;;;;;4853161;29;20032;-93
2023/07/04 05:18:46;;;;;;;22.00;20.25;;;33.80;99.90;;;;;;4882707;29;20108;-91
2023/07/04 05:21:18;;;;;;;22.67;20.75;;;33.90;99.90;;;;;;4874034;29;20035;-92
2023/07/04 05:23:48;;;;;;;22.30;20.42;;;33.80;99.90;;;;;;4905736;29;20048;-93
2023/07/04 05:26:21;;;;;;;22.80;20.80;;;34.40;99.90;;;;;;4904266;29;20036;-94
2023/07/04 05:28:49;;;;;;;22.55;20.85;;;34.00;99.90;;;;;;4906220;29;20427;-93
2023/07/04 05:31:22;;;;;;;22.77;21.10;;;33.80;99.90;;;;;;4893018;29;20029;-91
2023/07/04 05:33:48;;;;;;;23.13;21.17;;;33.70;99.90;;;;;;4870464;29;20033;-92
2023/07/04 05:36:19;;;;;;;24.05;22.10;;;34.20;99.90;;;;;;4873795;29;20032;-92
2023/07/04 05:38:51;;;;;;;23.95;21.85;;;34.80;99.90;;;;;;4874689;29;20052;-92
2023/07/04 05:41:21;;;;;;;22.80;21.20;;;34.20;99.90;;;;;;4875193;29;20108;-93
2023/07/04 05:43:49;;;;;;;23.50;21.35;;;34.40;99.90;;;;;;4888463;29;20123;-91
2023/07/04 05:46:17;;;;;;;24.35;22.27;;;34.20;99.90;;;;;;4870717;29;20032;-92
2023/07/04 05:48:44;;;;;;;23.63;21.85;;;34.60;99.90;;;;;;4869216;29;20116;-92
2023/07/04 05:51:13;;;;;;;23.83;22.05;;;34.80;99.90;;;;;;4869195;29;20033;-93
2023/07/04 05:53:42;;;;;;;23.77;22.08;;;35.10;99.90;;;;;;4869228;29;20449;-94
2023/07/04 05:56:15;;;;;;;24.50;22.27;;;35.60;99.90;;;;;;4868870;29;20048;-92
2023/07/04 05:58:46;;;;;;;24.63;22.55;;;35.30;99.90;;;;;;4869361;29;20045;-92
2023/07/04 06:01:27;;;;;;;24.27;22.35;;;36.00;99.90;;;;;;4869156;29;20153;-94
2023/07/04 06:03:55;;;;;;;24.65;22.77;;;35.90;99.90;;;;;;4869458;29;20025;-92
2023/07/04 06:06:27;;;;;;;24.15;22.25;;;35.60;99.90;;;;;;4869364;29;20056;-91
2023/07/04 06:08:56;;;;;;;25.65;23.60;;;34.80;99.90;;;;;;4869166;29;20040;-91
2023/07/04 06:11:26;;;;;;;25.17;23.42;;;35.00;99.90;;;;;;4868867;29;20029;-93
2023/07/04 06:13:54;;;;;;;25.38;23.42;;;35.10;99.90;;;;;;4869509;29;20092;-92
2023/07/04 06:16:20;;;;;;;25.02;23.33;;;34.90;99.90;;;;;;4878242;29;20011;-88
2023/07/04 06:18:47;;;;;;;25.13;23.33;;;35.00;99.90;;;;;;4891129;29;20028;-88
2023/07/04 06:21:21;;;;;;;25.65;23.75;;;35.50;99.90;;;;;;4891552;29;20043;-89
2023/07/04 06:23:50;;;;;;;26.08;24.20;;;35.20;99.90;;;;;;4887107;29;20059;-92
2023/07/04 06:26:17;;;;;;;25.63;23.80;;;35.00;99.90;;;;;;4874364;29;20021;-91
2023/07/04 06:28:43;;;;;;;25.58;23.77;;;35.10;99.90;;;;;;4890138;29;20047;-90
2023/07/04 06:31:14;;;;;;;25.45;23.45;;;34.90;99.90;;;;;;4891643;29;20035;-92
2023/07/04 06:33:41;;;;;;;25.85;23.95;;;35.10;99.90;;;;;;4892884;29;20084;-92
2023/07/04 06:36:09;;;;;;;25.85;23.98;;;35.60;99.90;;;;;;4892335;29;20024;-91
2023/07/04 06:38:36;;;;;;;26.42;24.35;;;36.00;99.90;;;;;;4890536;29;20019;-91
2023/07/04 06:41:10;;;;;;;26.58;24.30;;;36.40;99.90;;;;;;4889398;29;20041;-90
2023/07/04 06:43:39;;;;;;;26.92;24.73;;;35.20;99.90;;;;;;4904727;29;20037;-91
2023/07/04 14:15:37;;;;;;;24.17;22.38;;;31.60;99.90;;;;;;5041647;23;20048;-75
2023/07/04 14:18:04;;;;;;;25.17;23.27;;;31.50;99.90;;;;;;4922513;29;20115;-75
2023/07/04 14:20:30;;;;;;;24.67;22.77;;;31.30;99.90;;;;;;4918503;29;20043;-75
2023/07/04 14:22:56;;;;;;;23.63;21.92;;;31.00;99.90;;;;;;4918509;29;20417;-75
2023/07/04 14:25:58;;;;;;;23.83;22.05;;;30.90;99.90;;;;;;4902748;29;20111;-94
2023/07/04 14:28:25;;;;;;;23.38;21.42;;;31.00;99.90;;;;;;4889262;29;20036;-93
2023/07/04 14:30:56;;;;;;;24.00;22.05;;;31.00;99.90;;;;;;4868022;29;20031;-81
2023/07/04 14:33:26;;;;;;;23.45;21.70;;;31.10;99.90;;;;;;4899808;29;20039;-80
2023/07/04 14:35:52;;;;;;;23.40;21.50;;;31.00;99.90;;;;;;4900123;29;20049;-80
2023/07/04 14:38:19;;;;;;;23.80;22.10;;;31.00;99.90;;;;;;4936764;29;20054;-81
2023/07/04 14:40:50;;;;;;;23.98;22.10;;;31.20;99.90;;;;;;4937631;29;20421;-91
2023/07/04 14:43:17;;;;;;;23.63;21.92;;;31.30;99.90;;;;;;4910157;29;20035;-92
2023/07/04 14:45:43;;;;;;;23.50;21.80;;;31.40;99.90;;;;;;4905838;29;20035;-90
2023/07/04 14:48:09;;;;;;;23.13;21.42;;;31.30;99.90;;;;;;4905827;29;20096;-91
2023/07/04 14:50:36;;;;;;;22.20;20.63;;;31.10;99.90;;;;;;4905371;29;20031;-91
2023/07/04 14:53:02;;;;;;;22.73;21.02;;;31.30;99.90;;;;;;4905341;29;20505;-90
2023/07/04 14:55:30;;;;;;;23.25;21.42;;;31.50;99.90;;;;;;4905388;29;20123;-90
2023/07/04 14:57:59;;;;;;;23.67;21.83;;;31.50;99.90;;;;;;4905276;29;20061;-91
2023/07/04 15:00:41;;;;;;;22.88;21.17;;;31.10;99.90;;;;;;4905117;29;20138;-91
2023/07/04 15:03:07;;;;;;;23.15;21.40;;;30.90;99.90;;;;;;4905142;29;20481;-90
2023/07/04 15:05:33;;;;;;;23.67;21.80;;;31.00;99.90;;;;;;4905374;29;20058;-89
2023/07/04 15:08:02;;;;;;;22.75;20.98;;;31.00;99.90;;;;;;4904910;29;20035;-90
2023/07/04 15:10:29;;;;;;;22.48;20.75;;;31.00;99.90;;;;;;4905148;29;20035;-91
2023/07/04 15:12:55;;;;;;;23.38;21.27;;;30.90;99.90;;;;;;4904885;29;20122;-92
2023/07/04 15:15:21;;;;;;;23.48;21.48;;;30.90;99.90;;;;;;4904694;29;20080;-90
2023/07/04 15:17:48;;;;;;;22.63;20.90;;;30.70;99.90;;;;;;4920641;29;20038;-90
2023/07/04 15:20:14;;;;;;;23.48;21.63;;;30.60;99.90;;;;;;4904930;29;20035;-91
2023/07/04 15:22:40;;;;;;;22.65;20.73;;;30.70;99.90;;;;;;4887156;29;20032;-90
2023/07/04 15:25:07;;;;;;;22.92;20.98;;;30.70;99.90;;;;;;4886066;29;20104;-90
2023/07/04 15:27:34;;;;;;;22.10;20.40;;;30.50;99.90;;;;;;4885432;29;20112;-91
2023/07/04 15:30:00;;;;;;;21.50;20.00;;;30.30;99.90;;;;;;4886222;29;20409;-90
2023/07/04 15:32:28;;;;;;;21.58;19.77;;;30.20;99.90;;;;;;4885835;29;20036;-90
2023/07/04 15:34:54;;;;;;;21.25;19.60;;;30.00;99.90;;;;;;4885900;29;20032;-91
2023/07/04 15:37:23;;;;;;;21.30;19.48;;;30.00;99.90;;;;;;4885885;29;20070;-90
2023/07/04 15:39:51;;;;;;;20.25;18.75;;;30.10;99.90;;;;;;4885785;29;20032;-90
2023/07/04 15:42:17;;;;;;;21.92;20.15;;;30.00;99.90;;;;;;4886033;29;20064;-89
2023/07/04 15:44:44;;;;;;;21.88;19.88;;;29.90;99.90;;;;;;4885832;29;20028;-90
2023/07/04 15:47:10;;;;;;;21.23;19.73;;;29.90;99.90;;;;;;4885882;29;20118;-91
2023/07/04 15:49:39;;;;;;;21.25;19.70;;;30.00;99.90;;;;;;4886167;29;20039;-91
2023/07/04 15:52:05;;;;;;;21.73;19.95;;;30.20;99.90;;;;;;4885952;29;20490;-90
2023/07/04 15:54:32;;;;;;;20.92;19.33;;;30.20;99.90;;;;;;4885895;29;20036;-91
2023/07/04 15:56:58;;;;;;;21.65;19.85;;;30.30;99.90;;;;;;4885852;29;20032;-90
2023/07/04 15:59:24;;;;;;;21.33;19.60;;;30.30;99.90;;;;;;4885853;29;20032;-91
2023/07/04 16:01:51;;;;;;;22.40;20.50;;;30.30;99.90;;;;;;4886449;29;20028;-92
2023/07/04 16:04:17;;;;;;;22.85;20.98;;;30.30;99.90;;;;;;4885718;29;20040;-92
2023/07/04 16:06:44;;;;;;;22.60;20.90;;;30.40;99.90;;;;;;4885918;29;20043;-93
2023/07/04 16:09:10;;;;;;;20.38;18.77;;;30.20;99.90;;;;;;4885747;29;20032;-94
2023/07/04 16:11:37;;;;;;;21.65;19.98;;;30.20;99.90;;;;;;4885617;29;20409;-93
2023/07/04 16:14:04;;;;;;;21.33;19.67;;;29.90;99.90;;;;;;4885649;29;20027;-91
2023/07/04 16:16:31;;;;;;;21.70;19.90;;;29.60;99.90;;;;;;4882529;29;20059;-91
2023/07/04 16:18:57;;;;;;;21.77;20.10;;;29.40;99.90;;;;;;4883267;29;20474;-89
2023/07/04 16:21:23;;;;;;;22.55;20.65;;;29.50;99.90;;;;;;4897729;29;20035;-90
2023/07/04 16:23:50;;;;;;;23.13;20.90;;;29.60;99.90;;;;;;4882256;29;20029;-90
2023/07/04 16:26:17;;;;;;;22.42;20.63;;;29.40;99.90;;;;;;4882098;29;20054;-93
2023/07/04 16:28:44;;;;;;;22.77;20.52;;;29.30;99.90;;;;;;4897841;29;20028;-90
2023/07/04 16:31:15;;;;;;;22.52;20.45;;;29.10;99.90;;;;;;4897906;29;20032;-91
2023/07/04 16:33:42;;;;;;;21.40;19.70;;;29.20;99.90;;;;;;4882395;29;20494;-91
2023/07/04 16:36:08;;;;;;;21.20;19.50;;;28.70;99.90;;;;;;4884049;29;20029;-90
2023/07/04 16:38:35;;;;;;;20.83;19.15;;;28.50;99.90;;;;;;4902400;29;20036;-90
2023/07/04 16:41:06;;;;;;;21.52;19.67;;;28.40;99.90;;;;;;4919616;29;20481;-90
2023/07/04 16:43:36;;;;;;;20.75;19.25;;;28.40;99.90;;;;;;4921455;29;20571;-91
2023/07/04 16:46:02;;;;;;;21.13;19.33;;;28.30;99.90;;;;;;4905337;29;20036;-89
2023/07/04 16:48:28;;;;;;;20.02;18.48;;;28.30;99.90;;;;;;4920247;29;20041;-90
2023/07/04 16:50:59;;;;;;;21.30;19.60;;;28.30;99.90;;;;;;4914651;29;20044;-90
2023/07/04 16:53:27;;;;;;;21.83;19.90;;;28.20;99.90;;;;;;4919957;29;20038;-90
2023/07/04 16:55:59;;;;;;;20.88;19.15;;;28.10;99.90;;;;;;4920301;29;20076;-90
2023/07/04 16:58:27;;;;;;;20.10;18.70;;;28.00;99.90;;;;;;4904146;29;20064;-91
2023/07/04 17:00:54;;;;;;;21.13;19.52;;;28.00;99.90;;;;;;4889186;29;20032;-89
2023/07/04 17:03:21;;;;;;;21.15;19.30;;;28.00;99.90;;;;;;4888486;29;20393;-88
2023/07/04 17:05:48;;;;;;;21.17;19.35;;;28.00;99.90;;;;;;4888468;29;20038;-91
2023/07/04 17:08:14;;;;;;;20.50;18.90;;;28.00;99.90;;;;;;4888311;29;20028;-88
2023/07/04 17:10:48;;;;;;;19.48;17.98;;;27.90;99.90;;;;;;4919662;29;20024;-90
2023/07/04 17:13:14;;;;;;;20.65;19.15;;;27.80;99.90;;;;;;4920007;29;20047;-88
2023/07/04 17:15:41;;;;;;;20.38;18.77;;;27.80;99.90;;;;;;4922753;29;20048;-89
2023/07/04 17:18:07;;;;;;;21.42;19.35;;;27.90;99.90;;;;;;4907122;29;20488;-89
2023/07/04 17:20:34;;;;;;;21.30;19.48;;;27.80;99.90;;;;;;4906981;29;20035;-88
2023/07/04 17:23:00;;;;;;;21.10;19.30;;;27.60;99.90;;;;;;4907116;29;20091;-88
2023/07/04 17:25:26;;;;;;;20.98;19.38;;;27.60;99.90;;;;;;4906943;29;20034;-89
2023/07/04 17:27:55;;;;;;;20.10;18.65;;;27.50;99.90;;;;;;4907340;29;20035;-88
2023/07/04 17:30:21;;;;;;;20.75;19.13;;;27.40;99.90;;;;;;4908470;29;20031;-89
2023/07/04 17:32:48;;;;;;;21.02;19.35;;;27.40;99.90;;;;;;4907000;29;20413;-89
2023/07/04 17:35:14;;;;;;;21.13;19.40;;;27.40;99.90;;;;;;4906882;29;20028;-89
2023/07/04 17:37:40;;;;;;;21.10;19.20;;;27.30;99.90;;;;;;4906815;29;20047;-91
2023/07/04 17:40:07;;;;;;;21.00;19.30;;;27.30;99.90;;;;;;4906340;29;20083;-90
2023/07/04 17:42:33;;;;;;;21.13;19.15;;;27.30;99.90;;;;;;4906653;29;20115;-90
2023/07/04 17:45:00;;;;;;;20.40;18.80;;;27.30;99.90;;;;;;4906637;29;20549;-89
2023/07/04 17:47:29;;;;;;;20.25;18.73;;;27.40;99.90;;;;;;4906595;29;20036;-90
2023/07/04 17:49:56;;;;;;;20.38;18.77;;;27.30;99.90;;;;;;4906743;29;20036;-90
2023/07/04 17:52:22;;;;;;;20.10;18.60;;;27.30;99.90;;;;;;4905915;29;20040;-91
2023/07/04 17:54:48;;;;;;;20.33;18.65;;;27.20;99.90;;;;;;4906402;29;20111;-91
2023/07/04 17:57:17;;;;;;;21.05;19.13;;;27.00;99.90;;;;;;4906392;29;20040;-90
2023/07/04 17:59:44;;;;;;;21.60;19.33;;;27.00;99.90;;;;;;4906402;29;20120;-89
2023/07/04 18:02:10;;;;;;;21.35;19.40;;;26.90;99.90;;;;;;4906290;29;20059;-89
2023/07/04 18:04:36;;;;;;;21.73;19.73;;;26.90;99.90;;;;;;4906221;29;20027;-90
2023/07/04 18:07:03;;;;;;;20.58;18.75;;;26.90;99.90;;;;;;4906166;29;20059;-91
2023/07/04 18:09:29;;;;;;;21.88;19.92;;;26.90;99.90;;;;;;4906306;29;20126;-91
2023/07/04 18:11:56;;;;;;;20.70;19.00;;;26.80;99.90;;;;;;4906189;29;20039;-90
2023/07/04 18:14:22;;;;;;;20.90;19.10;;;26.80;99.90;;;;;;4906200;29;20156;-90
2023/07/04 18:16:49;;;;;;;20.10;18.60;;;26.80;99.90;;;;;;4905938;29;20102;-89
2023/07/04 18:19:15;;;;;;;21.15;19.45;;;26.70;99.90;;;;;;4905950;29;20152;-90
2023/07/04 18:21:42;;;;;;;20.92;19.23;;;26.60;99.90;;;;;;4906465;29;20027;-89
2023/07/04 18:24:10;;;;;;;20.63;19.02;;;26.40;99.90;;;;;;4905917;29;20032;-89
2023/07/04 18:26:38;;;;;;;20.45;18.90;;;26.30;99.90;;;;;;4906062;29;20045;-90
2023/07/04 18:29:07;;;;;;;21.33;19.30;;;26.30;99.90;;;;;;4906082;29;20038;-90
2023/07/04 18:31:34;;;;;;;21.35;19.58;;;26.10;99.90;;;;;;4905745;29;20031;-87
2023/07/04 18:34:02;;;;;;;21.73;19.65;;;26.10;99.90;;;;;;4905537;29;20028;-88
2023/07/04 18:36:37;;;;;;;22.05;20.20;;;26.00;99.90;;;;;;4898379;29;20032;-90
2023/07/04 18:39:05;;;;;;;22.27;20.27;;;25.90;99.90;;;;;;4883380;29;20037;-88
2023/07/04 18:41:38;;;;;;;22.48;20.45;;;25.90;99.90;;;;;;4883380;29;20043;-89
2023/07/04 18:44:05;;;;;;;22.67;20.73;;;25.80;99.90;;;;;;4883759;29;20033;-89
2023/07/04 18:46:34;;;;;;;21.52;19.75;;;25.80;99.90;;;;;;4883671;29;20499;-89
2023/07/04 18:49:01;;;;;;;20.63;19.13;;;25.80;99.90;;;;;;4883243;29;20043;-90
2023/07/04 18:51:30;;;;;;;21.52;19.73;;;25.80;99.90;;;;;;4883237;29;20054;-91
2023/07/04 18:53:58;;;;;;;22.80;20.52;;;25.80;99.90;;;;;;4883724;29;20382;-90
2023/07/04 18:56:27;;;;;;;21.70;19.75;;;25.70;99.90;;;;;;4883286;29;20025;-89
2023/07/04 18:58:54;;;;;;;25.83;21.20;;;25.70;99.90;;;;;;4883136;29;20505;-89
2023/07/04 19:01:24;;;;;;;23.83;21.38;;;25.60;99.90;;;;;;4882999;29;20558;-89
2023/07/04 19:03:51;;;;;;;22.75;20.63;;;25.60;99.90;;;;;;4882499;29;20040;-90
2023/07/04 19:06:21;;;;;;;23.00;20.73;;;25.50;99.90;;;;;;4883963;29;20057;-88
2023/07/04 19:08:50;;;;;;;22.23;20.33;;;25.50;99.90;;;;;;4883244;29;20128;-89
2023/07/04 19:11:20;;;;;;;22.50;20.58;;;25.50;99.90;;;;;;4882709;29;20029;-90
2023/07/04 19:14:16;;;;;;;22.88;20.77;;;25.50;99.90;;;;;;4882983;29;20040;-89
2023/07/04 19:16:55;;;;;;;22.38;20.50;;;25.50;99.90;;;;;;4888019;29;20083;-89
2023/07/04 19:19:28;;;;;;;22.23;20.45;;;25.40;99.90;;;;;;4904778;29;20038;-91
2023/07/04 19:21:56;;;;;;;22.77;20.70;;;25.40;99.90;;;;;;4905289;29;20032;-93
2023/07/04 19:27:16;;;;;;;22.23;19.92;;;25.40;99.90;;;;;;4874382;23;20388;-93
2023/07/04 19:29:47;;;;;;;24.33;22.13;;;25.50;99.90;;;;;;4848832;29;20040;-91
2023/07/04 19:32:15;;;;;;;22.67;20.58;;;25.60;99.90;;;;;;4879425;29;20123;-91
2023/07/04 19:34:41;;;;;;;25.90;23.35;;;25.70;99.90;;;;;;4867400;29;20044;-91
2023/07/04 19:37:08;;;;;;;23.98;21.65;;;25.80;99.90;;;;;;4867087;29;20044;-91
2023/07/04 19:39:36;;;;;;;26.02;21.40;;;25.80;99.90;;;;;;4867047;29;20029;-92
2023/07/04 19:42:03;;;;;;;24.30;21.80;;;25.70;99.90;;;;;;4882460;29;20037;-94
2023/07/04 19:44:30;;;;;;;26.40;21.90;;;25.60;99.90;;;;;;4867337;29;20115;-92
2023/07/04 19:46:57;;;;;;;23.25;21.15;;;25.50;99.90;;;;;;4884402;29;20036;-92
2023/07/04 19:49:26;;;;;;;23.63;21.30;;;25.40;99.90;;;;;;4867230;29;20025;-94
2023/07/04 19:51:52;;;;;;;22.05;20.10;;;25.30;99.90;;;;;;4882790;29;20032;-91
2023/07/04 19:54:19;;;;;;;22.90;20.50;;;25.20;99.90;;;;;;4867154;29;20496;-90
2023/07/04 19:56:45;;;;;;;26.42;21.60;;;25.10;99.90;;;;;;4867016;29;20039;-93
2023/07/04 19:59:12;;;;;;;22.52;20.52;;;25.00;99.90;;;;;;4882477;29;20032;-91
2023/07/04 20:01:41;;;;;;;22.67;20.40;;;24.90;99.90;;;;;;4867158;29;20032;-91
2023/07/04 20:04:08;;;;;;;22.20;20.15;;;25.00;99.90;;;;;;4866877;29;20029;-92
2023/07/04 20:06:38;;;;;;;23.13;19.20;;;24.90;99.90;;;;;;4866752;29;20037;-92
2023/07/04 20:09:05;;;;;;;21.55;19.33;;;24.90;99.90;;;;;;4866712;29;20029;-92
2023/07/04 20:11:31;;;;;;;22.17;19.73;;;24.90;99.90;;;;;;4882368;29;20041;-93